Time;durP1;ratioP1;P1;durP2;ratioP2;P2;SDS_P1;SDS_P2;PMS_P1;PMS_P2;Temp;Humidity;BMP_temperature;BMP_pressure;BME280_temperature;BME280_humidity;BME280_pressure;Samples;Min_cycle;Max_cycle;Signal;HPM_P1;HPM_P2
2022/06/20 00:00:38;;;;;;;7.87;3.47;;;;;;;19.31;76.30;100069.19;5530999;32;33975;-64
2022/06/20 00:03:45;;;;;;;6.55;3.10;;;;;;;19.24;76.17;100067.63;5531150;32;34524;-64
2022/06/20 00:06:47;;;;;;;5.60;3.03;;;;;;;19.18;76.65;100061.31;5531091;32;34599;-64
2022/06/20 00:09:50;;;;;;;6.53;2.80;;;;;;;19.44;76.12;100071.66;5531385;32;35199;-64
2022/06/20 00:12:53;;;;;;;4.68;2.95;;;;;;;19.31;76.04;100073.72;5530984;32;34693;-64
2022/06/20 00:15:56;;;;;;;6.22;3.05;;;;;;;19.17;76.85;100066.94;5530822;32;34240;-64
2022/06/20 00:19:00;;;;;;;5.93;3.20;;;;;;;19.07;77.82;100067.50;5530206;32;34699;-64
2022/06/20 00:22:03;;;;;;;11.43;3.95;;;;;;;19.02;78.64;100062.81;5530123;32;33907;-64
2022/06/20 00:25:06;;;;;;;5.00;3.00;;;;;;;18.90;79.47;100055.75;5530401;32;34071;-64
2022/06/20 00:28:12;;;;;;;5.82;3.33;;;;;;;18.80;80.65;100050.09;5530697;32;34567;-64
2022/06/20 00:31:15;;;;;;;7.32;3.00;;;;;;;18.72;82.19;100050.44;5530719;32;34691;-64
2022/06/20 00:34:18;;;;;;;8.52;3.25;;;;;;;18.65;82.69;100045.16;5530651;32;33859;-64
2022/06/20 00:37:21;;;;;;;5.30;3.20;;;;;;;18.58;83.05;100050.63;5530651;32;33825;-64
2022/06/20 00:40:29;;;;;;;6.03;3.35;;;;;;;18.52;83.76;100050.69;5531081;32;33940;-64
2022/06/20 00:43:37;;;;;;;6.53;3.40;;;;;;;18.50;84.29;100052.75;5530627;32;33929;-64
2022/06/20 00:46:49;;;;;;;5.12;3.25;;;;;;;18.42;84.66;100053.09;5530411;32;34888;-64
2022/06/20 00:49:59;;;;;;;6.22;3.03;;;;;;;18.36;84.81;100044.06;5530438;32;34026;-64
2022/06/20 00:53:14;;;;;;;8.10;3.10;;;;;;;18.32;84.91;100037.50;5530324;32;34007;-64
2022/06/20 00:56:28;;;;;;;8.50;3.17;;;;;;;18.28;84.76;100041.69;5530289;32;34723;-64
2022/06/20 00:59:39;;;;;;;7.03;3.25;;;;;;;18.25;85.01;100037.59;5530607;32;35244;-64
2022/06/20 01:02:45;;;;;;;6.62;3.08;;;;;;;18.21;85.52;100032.91;5530045;32;33778;-64
2022/06/20 01:06:10;;;;;;;10.02;3.55;;;;;;;18.15;86.24;100031.13;5530091;32;34641;-64
2022/06/20 01:09:15;;;;;;;4.40;2.80;;;;;;;18.08;86.39;100028.53;5530049;32;33983;-64
2022/06/20 01:12:21;;;;;;;5.90;3.20;;;;;;;18.06;86.13;100025.22;5530016;32;33902;-64
2022/06/20 01:15:26;;;;;;;6.45;3.00;;;;;;;17.99;86.16;100024.50;5529912;32;34650;-64
2022/06/20 01:18:32;;;;;;;5.75;2.95;;;;;;;17.98;86.15;100012.12;5529879;32;34295;-64
2022/06/20 01:21:36;;;;;;;4.03;2.58;;;;;;;17.93;86.84;100011.16;5529829;32;34627;-64
2022/06/20 01:24:49;;;;;;;6.32;3.00;;;;;;;17.92;87.67;100009.50;5530113;32;35228;-64
2022/06/20 01:27:52;;;;;;;4.45;3.25;;;;;;;17.86;87.68;100005.06;5529750;32;34018;-63
2022/06/20 01:30:57;;;;;;;6.35;3.37;;;;;;;17.85;87.60;100006.91;5530862;32;34593;-64
2022/06/20 01:34:01;;;;;;;7.10;2.75;;;;;;;17.81;87.40;100001.16;5532322;32;34584;-64
2022/06/20 01:37:28;;;;;;;4.22;2.50;;;;;;;17.71;87.12;99992.00;5532701;32;33871;-64
2022/06/20 01:40:31;;;;;;;5.68;2.60;;;;;;;17.67;86.31;99988.13;5532438;32;34609;-64
2022/06/20 01:43:39;;;;;;;4.57;2.67;;;;;;;17.66;85.10;99997.22;5532335;32;35307;-64
2022/06/20 01:46:42;;;;;;;4.97;2.67;;;;;;;17.62;84.83;100004.09;5532685;32;34051;-64
2022/06/20 01:49:48;;;;;;;3.90;2.67;;;;;;;17.56;85.68;99992.34;5532454;32;35497;-64
2022/06/20 01:52:51;;;;;;;4.95;2.80;;;;;;;17.56;85.70;99986.97;5532252;32;33939;-64
2022/06/20 01:55:56;;;;;;;9.15;3.17;;;;;;;17.54;86.11;99997.09;5532356;32;34067;-64
2022/06/20 01:59:07;;;;;;;5.37;2.80;;;;;;;17.51;86.85;99994.88;5532154;32;33918;-64
2022/06/20 02:02:10;;;;;;;5.37;3.12;;;;;;;17.50;87.47;99997.75;5527476;32;150282;-64
2022/06/20 02:05:19;;;;;;;4.35;2.78;;;;;;;17.43;87.73;99989.78;5532501;32;34026;-64
2022/06/20 02:08:24;;;;;;;9.57;3.35;;;;;;;17.42;88.27;99980.13;5532471;32;34008;-64
2022/06/20 02:11:45;;;;;;;3.47;2.60;;;;;;;17.43;89.08;99976.38;5532493;32;34018;-64
2022/06/20 02:14:57;;;;;;;3.40;2.45;;;;;;;17.38;88.89;99974.34;5532358;32;34436;-64
2022/06/20 02:18:02;;;;;;;7.68;3.28;;;;;;;17.29;89.14;99967.62;5532030;32;33903;-64
2022/06/20 02:21:12;;;;;;;9.95;3.28;;;;;;;17.26;90.08;99957.38;5531932;32;34130;-64
2022/06/20 02:24:17;;;;;;;;;;;;;;;17.29;91.27;99958.78;5532683;32;34056;-64
2022/06/20 02:27:27;;;;;;;6.80;3.08;;;;;;;17.21;91.14;99964.44;5532016;32;34342;-64
2022/06/20 02:30:31;;;;;;;6.05;2.97;;;;;;;17.14;90.97;99958.28;5531941;32;33883;-64
2022/06/20 02:33:34;;;;;;;6.10;2.80;;;;;;;17.08;90.67;99949.31;5531786;32;33899;-64
2022/06/20 02:36:36;;;;;;;3.55;2.50;;;;;;;17.09;89.93;99953.59;5531919;32;33920;-64
2022/06/20 02:39:41;;;;;;;4.40;2.85;;;;;;;17.04;89.33;99953.44;5531899;32;34607;-64
2022/06/20 02:43:17;;;;;;;5.35;2.72;;;;;;;17.01;88.17;99958.44;5531377;32;33920;-63
2022/06/20 02:46:23;;;;;;;5.47;2.62;;;;;;;16.96;89.00;99964.44;5511267;32;35172;-64
2022/06/20 02:49:29;;;;;;;5.93;2.83;;;;;;;16.95;89.05;99957.44;5531791;32;33958;-64
2022/06/20 02:52:46;;;;;;;4.75;2.80;;;;;;;17.13;91.59;99965.53;5531805;32;34340;-64
2022/06/20 02:55:51;;;;;;;5.25;3.03;;;;;;;17.36;92.08;99959.53;5531647;32;34687;-64
2022/06/20 02:59:11;;;;;;;5.07;2.80;;;;;;;17.47;92.27;99958.00;5531765;32;35161;-63
2022/06/20 03:02:20;;;;;;;5.10;2.62;;;;;;;17.54;92.54;99954.19;5531605;32;34353;-63
2022/06/20 03:05:23;;;;;;;5.07;2.50;;;;;;;17.43;93.32;99959.47;5532023;32;35270;-63
2022/06/20 03:08:26;;;;;;;3.78;2.78;;;;;;;17.44;92.76;99955.72;5531571;32;33956;-64
2022/06/20 03:11:34;;;;;;;6.20;2.80;;;;;;;17.41;92.93;99958.88;5530615;32;34193;-64
2022/06/20 03:14:50;;;;;;;3.85;2.72;;;;;;;17.33;93.29;99960.00;5531529;32;34672;-64
2022/06/20 03:17:53;;;;;;;6.03;2.92;;;;;;;17.30;93.35;99963.09;5530901;32;32758;-64
2022/06/20 03:20:56;;;;;;;5.78;3.08;;;;;;;17.28;91.78;99949.13;5531495;32;34581;-63
2022/06/20 03:24:01;;;;;;;5.53;2.90;;;;;;;17.31;91.08;99948.66;5531403;32;34384;-64
2022/06/20 03:27:06;;;;;;;4.18;2.62;;;;;;;17.39;90.94;99948.34;5531353;32;34408;-63
2022/06/20 03:30:26;;;;;;;6.00;2.80;;;;;;;17.38;91.05;99954.75;5531318;32;34061;-64
2022/06/20 03:33:29;;;;;;;7.60;3.15;;;;;;;17.55;89.86;99949.63;5531337;32;34005;-63
2022/06/20 03:36:31;;;;;;;4.20;2.58;;;;;;;17.49;88.66;99955.87;5531248;32;34034;-63
2022/06/20 03:39:35;;;;;;;7.68;3.03;;;;;;;17.55;88.43;99953.16;5531288;32;33946;-64
2022/06/20 03:42:39;;;;;;;5.97;3.12;;;;;;;17.55;87.91;99953.16;5531227;32;34576;-64
2022/06/20 03:45:48;;;;;;;5.35;3.00;;;;;;;17.59;87.56;99961.59;5531267;32;34125;-64
2022/06/20 03:49:03;;;;;;;5.72;2.80;;;;;;;17.64;86.04;99954.50;5531259;32;33920;-64
2022/06/20 03:52:13;;;;;;;4.18;2.60;;;;;;;17.76;85.19;99958.09;5531035;32;34791;-63
2022/06/20 03:55:25;;;;;;;4.15;2.65;;;;;;;17.95;83.21;99948.16;5530383;32;34450;-64
2022/06/20 03:58:38;;;;;;;11.10;2.80;;;;;;;18.01;81.17;99952.59;5531254;32;34123;-64
2022/06/20 04:01:53;;;;;;;5.28;2.60;;;;;;;18.04;82.03;99954.84;5530918;32;33957;-64
2022/06/20 04:05:12;;;;;;;8.07;3.35;;;;;;;18.19;82.33;99952.59;5531005;32;34716;-64
2022/06/20 04:12:36;;;;;;;3.53;2.42;;;;;;;18.38;81.93;99942.63;5466473;32;35033;-63
2022/06/20 04:15:46;;;;;;;5.70;2.70;;;;;;;18.42;79.29;99951.84;5530704;32;34016;-64
2022/06/20 04:19:01;;;;;;;4.75;2.50;;;;;;;18.47;79.35;99954.66;5530160;32;32539;-65
2022/06/20 04:22:17;;;;;;;10.05;2.67;;;;;;;18.51;78.17;99963.06;5530864;32;35166;-65
2022/06/20 04:25:47;;;;;;;4.75;2.30;;;;;;;18.66;78.61;99945.50;5530143;32;32578;-64
2022/06/20 04:29:16;;;;;;;4.78;2.40;;;;;;;18.74;77.31;99952.41;5530685;32;34358;-64
2022/06/20 04:32:30;;;;;;;5.67;2.90;;;;;;;18.85;76.66;99953.47;5530703;32;34048;-64
2022/06/20 04:35:37;;;;;;;2.87;2.42;;;;;;;18.93;76.64;99953.94;5530695;32;34553;-64
2022/06/20 04:38:51;;;;;;;7.55;3.10;;;;;;;18.96;78.70;99953.50;5530665;32;34055;-64
2022/06/20 04:42:05;;;;;;;4.47;2.70;;;;;;;19.04;76.79;99955.00;5530813;32;33974;-64
2022/06/20 04:45:14;;;;;;;7.82;2.83;;;;;;;19.10;77.18;99956.78;5530660;32;34661;-64
2022/06/20 04:48:20;;;;;;;5.75;2.65;;;;;;;19.21;75.56;99961.34;5530539;32;34511;-64
2022/06/20 04:51:32;;;;;;;4.15;2.47;;;;;;;19.34;75.65;99961.09;5530335;32;34085;-65
2022/06/20 04:54:35;;;;;;;7.57;2.55;;;;;;;19.44;75.58;99950.59;5529577;32;34653;-64
2022/06/20 04:57:38;;;;;;;5.68;2.67;;;;;;;19.60;70.31;99949.06;5530236;32;33990;-65
2022/06/20 05:00:44;;;;;;;5.87;2.37;;;;;;;19.60;69.87;99953.63;5529949;32;34890;-65
2022/06/20 05:03:55;;;;;;;4.95;2.70;;;;;;;19.73;70.68;99962.25;5530161;32;33980;-64
2022/06/20 05:07:02;;;;;;;4.05;2.70;;;;;;;19.81;70.60;99966.44;5532410;32;34683;-65
2022/06/20 05:10:23;;;;;;;7.05;3.00;;;;;;;19.98;70.37;99961.97;5532334;32;35408;-64
2022/06/20 05:13:35;;;;;;;7.87;3.05;;;;;;;20.15;68.66;99960.12;5532585;32;33900;-64
2022/06/20 05:16:45;;;;;;;7.10;3.05;;;;;;;20.17;68.00;99962.59;5532016;32;34653;-64
2022/06/20 05:19:51;;;;;;;6.65;3.05;;;;;;;20.20;70.17;99962.91;5532084;32;34265;-64
2022/06/20 05:23:20;;;;;;;5.68;2.87;;;;;;;20.33;69.55;99962.66;5531635;32;34667;-64
2022/06/20 05:26:29;;;;;;;4.30;2.60;;;;;;;20.41;69.23;99969.53;5532002;32;33978;-65
2022/06/20 05:29:36;;;;;;;8.27;3.35;;;;;;;20.47;69.15;99971.28;5531962;32;34109;-65
2022/06/20 05:32:46;;;;;;;6.35;2.75;;;;;;;20.47;69.36;99968.59;5531807;32;34288;-64
2022/06/20 05:35:58;;;;;;;9.80;3.12;;;;;;;20.57;68.62;99976.03;5532195;32;34267;-64
2022/06/20 05:39:11;;;;;;;7.70;2.55;;;;;;;20.78;68.30;99976.13;5532086;32;35215;-64
2022/06/20 05:42:17;;;;;;;4.12;2.53;;;;;;;20.90;66.15;99976.06;5531959;32;33904;-64
2022/06/20 05:45:27;;;;;;;4.40;2.30;;;;;;;20.99;63.71;99969.19;5532208;32;34005;-64
2022/06/20 05:48:32;;;;;;;;;;;;;;;21.02;65.22;99970.56;5532022;32;34231;-64
2022/06/20 05:51:38;;;;;;;4.22;2.40;;;;;;;21.03;64.00;99977.59;5531333;32;34356;-64
2022/06/20 05:54:47;;;;;;;8.98;2.60;;;;;;;21.02;65.11;99971.37;5531540;32;35209;-64
2022/06/20 05:57:50;;;;;;;5.50;2.80;;;;;;;21.27;64.41;99971.00;5532098;32;34550;-65
2022/06/20 06:00:56;;;;;;;6.07;3.08;;;;;;;21.20;63.97;99976.53;5531087;32;34661;-65
2022/06/20 06:04:24;;;;;;;7.95;2.70;;;;;;;21.39;64.93;99981.69;5531552;32;35390;-64
2022/06/20 06:07:34;;;;;;;4.22;2.47;;;;;;;21.72;63.84;99988.91;5530866;32;33933;-65
2022/06/20 06:11:02;;;;;;;3.12;2.10;;;;;;;21.72;64.01;99981.62;5531605;32;34170;-65
2022/06/20 06:14:11;;;;;;;5.47;2.62;;;;;;;21.86;63.34;99977.47;5531452;32;34665;-65
2022/06/20 06:17:37;;;;;;;4.50;2.50;;;;;;;22.05;61.89;99973.41;5530421;32;34623;-65
2022/06/20 06:20:48;;;;;;;6.50;2.53;;;;;;;22.02;62.48;99979.34;5531359;32;34402;-65
2022/06/20 06:23:55;;;;;;;6.45;2.55;;;;;;;22.11;62.89;99974.28;5530736;32;32325;-65
2022/06/20 06:27:01;;;;;;;6.40;2.33;;;;;;;22.33;61.71;99963.44;5531223;32;34202;-64
2022/06/20 06:30:17;;;;;;;5.12;2.50;;;;;;;22.52;60.45;99962.00;5531363;32;34584;-64
2022/06/20 06:33:31;;;;;;;4.47;2.53;;;;;;;22.74;60.07;99970.09;5531769;32;33468;-64
2022/06/20 06:36:56;;;;;;;3.92;2.50;;;;;;;22.83;57.25;99965.84;5531340;32;34836;-64
2022/06/20 06:40:13;;;;;;;4.37;2.65;;;;;;;22.95;58.72;99961.06;5531476;32;34259;-65
2022/06/20 06:43:28;;;;;;;5.57;2.62;;;;;;;23.09;57.75;99958.75;5530914;32;34045;-64
2022/06/20 06:46:39;;;;;;;4.25;2.65;;;;;;;23.26;57.41;99968.34;5530412;32;34067;-65
2022/06/20 06:49:47;;;;;;;6.37;2.92;;;;;;;23.38;56.60;99962.72;5530706;32;34086;-65
2022/06/20 06:52:58;;;;;;;16.37;2.85;;;;;;;23.50;56.16;99960.66;5531304;32;34031;-65
2022/06/20 06:56:09;;;;;;;5.85;2.75;;;;;;;23.64;55.88;99964.53;5531042;32;34645;-65
2022/06/20 06:59:22;;;;;;;4.43;2.40;;;;;;;23.86;54.97;99964.34;5531471;32;34628;-65
2022/06/20 07:02:29;;;;;;;4.82;3.08;;;;;;;24.07;53.13;99963.34;5531812;32;34828;-65
2022/06/20 07:05:36;;;;;;;8.35;2.70;;;;;;;24.34;52.19;99948.81;5531119;32;33992;-65
2022/06/20 07:08:55;;;;;;;9.68;3.58;;;;;;;24.56;53.00;99944.75;5531117;32;34918;-65
2022/06/20 07:12:05;;;;;;;7.43;2.90;;;;;;;24.97;51.89;99942.91;5531384;32;34007;-65
2022/06/20 07:15:23;;;;;;;8.70;2.72;;;;;;;25.16;50.06;99929.59;5531358;32;33953;-65
2022/06/20 07:18:38;;;;;;;4.12;2.70;;;;;;;25.60;49.81;99916.19;5530628;32;34319;-65
2022/06/20 07:21:43;;;;;;;5.62;2.97;;;;;;;25.80;49.86;99920.72;5531110;32;34723;-65
2022/06/20 07:24:49;;;;;;;3.95;2.42;;;;;;;26.25;47.08;99911.50;5531118;32;34645;-66
2022/06/20 07:28:06;;;;;;;5.30;2.42;;;;;;;26.56;47.89;99907.47;5531211;32;35216;-65
2022/06/20 07:31:19;;;;;;;5.82;2.67;;;;;;;26.84;46.21;99908.59;5531198;32;33920;-64
2022/06/20 07:34:28;;;;;;;6.37;2.62;;;;;;;27.18;46.49;99901.22;5531003;32;35260;-64
2022/06/20 07:37:37;;;;;;;7.93;2.80;;;;;;;27.58;43.35;99890.97;5530428;32;34852;-64
2022/06/20 07:40:52;;;;;;;5.00;2.80;;;;;;;28.07;42.89;99896.06;5530592;32;35389;-64
2022/06/20 07:44:03;;;;;;;10.48;2.80;;;;;;;28.33;41.51;99899.22;5530851;32;33925;-64
2022/06/20 07:47:13;;;;;;;6.18;2.72;;;;;;;29.33;39.39;99895.91;5530004;32;33335;-64
2022/06/20 07:50:27;;;;;;;9.48;2.92;;;;;;;30.26;36.21;99882.72;5530033;32;33879;-65
2022/06/20 07:53:59;;;;;;;5.43;2.30;;;;;;;31.12;35.83;99886.84;5530754;32;34415;-66
2022/06/20 07:57:10;;;;;;;5.72;2.10;;;;;;;30.92;34.49;99892.84;5530456;32;34372;-65
2022/06/20 08:00:18;;;;;;;7.82;2.47;;;;;;;31.66;33.88;99887.56;5530562;32;35183;-68
2022/06/20 08:03:43;;;;;;;5.72;2.60;;;;;;;32.00;32.92;99890.31;5530655;32;33998;-66
2022/06/20 08:06:56;;;;;;;4.28;2.55;;;;;;;31.02;34.58;99884.38;5529396;32;34195;-66
2022/06/20 08:10:28;;;;;;;3.85;2.33;;;;;;;30.82;35.44;99876.69;5529649;32;33114;-66
2022/06/20 08:13:51;;;;;;;7.32;2.90;;;;;;;31.13;34.68;99882.19;5507961;32;34136;-66
2022/06/20 08:16:58;;;;;;;7.87;2.42;;;;;;;32.58;34.73;99880.84;5530682;32;34433;-66
2022/06/20 08:20:03;;;;;;;6.68;2.45;;;;;;;32.29;34.65;99881.50;5529822;32;34589;-66
2022/06/20 08:23:22;;;;;;;9.57;2.40;;;;;;;33.03;32.65;99865.53;5529717;32;34654;-68
2022/06/20 08:26:39;;;;;;;4.55;2.95;;;;;;;33.91;31.32;99865.56;5530636;32;35244;-67
2022/06/20 08:30:12;;;;;;;8.00;2.90;;;;;;;33.53;31.77;99873.09;5530282;32;33978;-66
2022/06/20 08:33:41;;;;;;;7.05;2.40;;;;;;;33.53;32.21;99871.16;5530422;32;34571;-67
2022/06/20 08:36:51;;;;;;;5.47;2.50;;;;;;;33.39;32.51;99867.03;5530424;32;34194;-67
2022/06/20 08:40:30;;;;;;;9.43;2.97;;;;;;;33.10;31.78;99856.78;5516291;32;33680;-66
2022/06/20 08:44:06;;;;;;;7.15;3.17;;;;;;;33.28;32.80;99863.84;5529209;32;33964;-67
2022/06/20 08:47:27;;;;;;;6.32;2.72;;;;;;;33.63;31.06;99850.69;5529619;32;34874;-67
2022/06/20 08:50:58;;;;;;;3.35;2.30;;;;;;;34.60;29.91;99853.16;5529989;32;35171;-67
2022/06/20 08:54:28;;;;;;;10.10;2.80;;;;;;;33.31;32.20;99862.38;5529973;32;33928;-66
2022/06/20 08:57:56;;;;;;;6.40;2.62;;;;;;;34.52;31.55;99851.31;5529863;32;34030;-66
2022/06/20 09:01:28;;;;;;;5.97;2.47;;;;;;;34.49;31.11;99847.28;5529654;32;35227;-66
2022/06/20 09:05:02;;;;;;;8.90;2.70;;;;;;;35.13;31.33;99852.25;5529379;32;34567;-66
2022/06/20 09:08:29;;;;;;;7.25;2.55;;;;;;;35.75;29.07;99851.91;5529625;32;34602;-65
2022/06/20 09:11:50;;;;;;;4.32;2.47;;;;;;;36.78;28.68;99841.87;5528367;32;32917;-66
2022/06/20 09:15:07;;;;;;;4.93;2.50;;;;;;;36.66;27.33;99838.34;5529143;32;33880;-66
2022/06/20 09:18:43;;;;;;;5.10;2.42;;;;;;;37.31;27.24;99836.88;5529396;32;34309;-68
2022/06/20 09:22:13;;;;;;;4.18;2.55;;;;;;;37.51;25.72;99827.47;5529245;32;34123;-66
2022/06/20 09:25:28;;;;;;;;;;;;;;;38.42;24.92;99824.25;5529240;32;34576;-66
2022/06/20 09:28:50;;;;;;;4.62;3.20;;;;;;;37.59;25.11;99822.91;5529457;32;34860;-67
2022/06/20 09:32:02;;;;;;;8.20;2.90;;;;;;;36.14;27.42;99819.94;5529265;32;33737;-68
2022/06/20 09:35:26;;;;;;;14.60;3.22;;;;;;;37.08;27.89;99805.50;5528420;32;32546;-67
2022/06/20 09:39:08;;;;;;;7.03;2.85;;;;;;;36.32;27.67;99779.81;5529128;32;34223;-68
2022/06/20 09:42:34;;;;;;;4.32;2.50;;;;;;;36.98;26.50;99787.47;5529380;32;33943;-66
2022/06/20 09:45:52;;;;;;;5.05;3.22;;;;;;;37.99;24.95;99781.88;5528455;32;34165;-67
2022/06/20 09:49:19;;;;;;;7.60;2.90;;;;;;;38.29;24.72;99785.59;5527843;32;32813;-67
2022/06/20 09:52:41;;;;;;;6.87;3.12;;;;;;;36.53;27.67;99774.84;5529815;32;34588;-68
2022/06/20 09:56:10;;;;;;;7.75;3.05;;;;;;;35.66;27.90;99777.53;5531666;32;34977;-67
2022/06/20 09:59:30;;;;;;;5.85;2.60;;;;;;;37.61;27.05;99774.34;5531344;32;32429;-67
2022/06/20 10:03:05;;;;;;;4.25;2.70;;;;;;;39.77;23.82;99761.47;5531870;32;34694;-66
2022/06/20 10:06:14;;;;;;;8.70;2.92;;;;;;;40.50;22.04;99767.44;5531681;32;34057;-67
2022/06/20 10:09:27;;;;;;;3.72;2.30;;;;;;;41.04;22.78;99761.16;5531405;32;34373;-67
2022/06/20 10:12:43;;;;;;;6.60;2.70;;;;;;;39.05;24.32;99755.28;5531821;32;33990;-69
2022/06/20 10:16:14;;;;;;;5.10;2.75;;;;;;;38.03;24.75;99743.16;5531867;32;33847;-68
2022/06/20 10:19:20;;;;;;;5.97;2.75;;;;;;;38.08;25.10;99743.66;5453461;32;34674;-66
2022/06/20 10:22:40;;;;;;;6.65;2.80;;;;;;;39.28;24.46;99744.91;5453633;32;33984;-67
2022/06/20 10:26:07;;;;;;;8.40;2.97;;;;;;;40.12;23.14;99746.38;5453684;32;35237;-67
2022/06/20 10:29:17;;;;;;;8.48;2.90;;;;;;;40.26;23.71;99729.88;5453698;32;34734;-68
2022/06/20 10:32:51;;;;;;;3.55;2.37;;;;;;;39.96;21.86;99739.06;5441185;32;34053;-69
2022/06/20 10:36:08;;;;;;;4.55;2.97;;;;;;;38.53;23.79;99734.63;5440892;32;34105;-68
2022/06/20 10:39:30;;;;;;;;;;;;;;;39.32;22.70;99723.56;5454142;32;33938;-67
2022/06/20 10:43:01;;;;;;;4.03;2.70;;;;;;;40.29;22.16;99738.25;5440981;32;34793;-67
2022/06/20 10:46:10;;;;;;;6.35;2.90;;;;;;;40.02;23.14;99733.16;5453565;32;33929;-69
2022/06/20 10:49:15;;;;;;;4.22;2.80;;;;;;;40.02;22.49;99733.16;5453536;32;34037;-68
2022/06/20 10:52:31;;;;;;;5.20;2.80;;;;;;;41.69;20.45;99729.69;5454065;32;34196;-68
2022/06/20 10:55:55;;;;;;;6.55;3.30;;;;;;;42.35;19.59;99726.34;5466479;32;34415;-67
2022/06/20 10:59:38;;;;;;;4.25;2.90;;;;;;;41.58;20.64;99713.78;5531527;32;34675;-69
2022/06/20 11:03:02;;;;;;;4.30;2.58;;;;;;;41.45;19.84;99720.88;5530261;32;34282;-68
2022/06/20 11:06:36;;;;;;;5.67;3.00;;;;;;;41.56;20.15;99707.78;5531345;32;33883;-67
2022/06/20 11:10:01;;;;;;;8.88;3.00;;;;;;;41.20;20.39;99700.44;5531416;32;34028;-67
2022/06/20 11:13:33;;;;;;;6.90;2.72;;;;;;;42.29;19.91;99702.03;5530735;32;32473;-68
2022/06/20 11:17:03;;;;;;;3.67;2.65;;;;;;;42.16;20.04;99700.81;5530751;32;32425;-68
2022/06/20 11:20:34;;;;;;;6.68;2.50;;;;;;;41.89;19.36;99695.56;5531454;32;33979;-66
2022/06/20 11:23:43;;;;;;;3.50;2.47;;;;;;;42.87;18.50;99685.69;5531646;32;33851;-67
2022/06/20 11:26:53;;;;;;;7.78;2.40;;;;;;;43.00;17.94;99674.88;5530577;32;34736;-68
2022/06/20 11:30:34;;;;;;;10.35;2.67;;;;;;;43.04;19.10;99681.25;5531271;32;35273;-69
2022/06/20 11:34:19;;;;;;;4.45;2.72;;;;;;;42.27;19.21;99690.47;5530280;32;33110;-68
2022/06/20 11:37:43;;;;;;;5.12;2.47;;;;;;;41.10;20.81;99703.97;5530944;32;34118;-66
2022/06/20 11:40:57;;;;;;;4.28;2.70;;;;;;;42.13;20.04;99682.88;5530087;32;32973;-66
2022/06/20 11:44:22;;;;;;;4.50;2.53;;;;;;;44.76;17.83;99693.88;5531257;32;35092;-66
2022/06/20 11:47:45;;;;;;;3.08;2.22;;;;;;;43.30;18.64;99691.97;5531233;32;33982;-67
2022/06/20 11:51:09;;;;;;;4.25;2.28;;;;;;;44.72;17.00;99693.91;5531173;32;33991;-67
2022/06/20 11:54:56;;;;;;;2.87;2.37;;;;;;;45.19;16.95;99694.22;5531376;32;34587;-68
2022/06/20 11:58:34;;;;;;;6.53;2.70;;;;;;;45.17;16.63;99697.44;5499573;32;34055;-68
2022/06/20 12:02:15;;;;;;;4.22;2.30;;;;;;;45.17;16.07;99689.03;5531037;32;35274;-67
2022/06/20 12:05:25;;;;;;;3.58;2.08;;;;;;;43.75;16.99;99695.78;5469446;32;32512;-67
2022/06/20 12:08:54;;;;;;;3.60;2.25;;;;;;;44.33;17.30;99683.06;5530301;32;32794;-68
2022/06/20 12:12:09;;;;;;;7.85;2.62;;;;;;;44.99;16.44;99669.62;5530739;32;34937;-67
2022/06/20 12:15:46;;;;;;;3.08;2.10;;;;;;;44.59;16.76;99678.84;5529710;32;34347;-67
2022/06/20 12:26:21;;;;;;;7.82;2.33;;;;;;;45.52;16.23;99659.81;5530661;32;35189;-66
2022/06/20 12:29:28;;;;;;;6.72;2.65;;;;;;;43.90;17.48;99659.38;5530720;32;33956;-67
2022/06/20 12:32:34;;;;;;;3.03;2.28;;;;;;;44.16;17.24;99651.19;5530743;32;32888;-67
2022/06/20 12:35:46;;;;;;;3.85;2.10;;;;;;;45.66;16.32;99636.41;5517941;32;32338;-67
2022/06/20 12:39:10;;;;;;;;;;;;;;;44.94;17.43;99630.88;5530475;32;34021;-66
2022/06/20 12:42:40;;;;;;;6.10;2.20;;;;;;;44.15;16.53;99637.63;5529352;32;34551;-68
2022/06/20 12:46:01;;;;;;;4.78;2.17;;;;;;;43.87;17.80;99644.22;5529754;32;32596;-67
2022/06/20 12:49:24;;;;;;;9.27;2.12;;;;;;;45.24;15.81;99641.34;5529960;32;33847;-66
2022/06/20 12:52:52;;;;;;;4.32;2.42;;;;;;;45.07;16.13;99639.59;5530462;32;34180;-67
2022/06/20 12:56:32;;;;;;;4.30;1.98;;;;;;;45.07;15.97;99636.78;5518515;32;33152;-67
2022/06/20 13:00:02;;;;;;;3.92;2.40;;;;;;;42.21;18.68;99622.34;5529739;32;34053;-65
2022/06/20 13:03:45;;;;;;;4.50;2.10;;;;;;;43.47;17.66;99620.50;5529829;32;35396;-65
2022/06/20 13:07:19;;;;;;;3.35;1.80;;;;;;;44.65;17.18;99623.22;5530114;32;35327;-66
2022/06/20 13:10:40;;;;;;;4.30;1.80;;;;;;;46.05;15.42;99619.00;5529994;32;34120;-66
2022/06/20 13:14:14;;;;;;;2.40;1.58;;;;;;;47.23;14.00;99607.19;5528764;32;33447;-66
2022/06/20 13:17:20;;;;;;;2.70;1.50;;;;;;;47.61;11.76;99624.44;5530170;32;33867;-66
2022/06/20 13:20:41;;;;;;;4.33;2.13;;;;;;;48.02;11.06;99623.91;5529796;32;34302;-69
2022/06/20 13:23:56;;;;;;;4.55;1.60;;;;;;;46.86;12.20;99622.41;5529621;32;34033;-67
2022/06/20 13:27:25;;;;;;;3.70;1.62;;;;;;;46.71;12.60;99612.66;5531680;32;33933;-67
2022/06/20 13:31:14;;;;;;;9.93;1.85;;;;;;;45.80;13.66;99613.81;5531543;32;35206;-67
2022/06/20 13:34:27;;;;;;;6.57;2.25;;;;;;;47.65;12.89;99616.72;5528118;32;33166;-66
2022/06/20 13:37:55;;;;;;;9.63;1.98;;;;;;;45.59;14.69;99605.69;5531844;32;34701;-67
2022/06/20 13:41:17;;;;;;;3.78;1.87;;;;;;;46.86;13.76;99594.31;5532153;32;34671;-66
2022/06/20 13:44:38;;;;;;;1.98;1.55;;;;;;;46.87;13.04;99593.88;5531826;32;33920;-68
2022/06/20 13:48:00;;;;;;;2.87;1.77;;;;;;;48.28;11.97;99597.50;5531695;32;34581;-67
2022/06/20 13:51:18;;;;;;;6.25;1.40;;;;;;;48.38;12.50;99610.53;5531318;32;34541;-66
2022/06/20 13:54:46;;;;;;;3.97;1.40;;;;;;;48.05;11.50;99594.91;5531331;32;35478;-68
2022/06/20 13:57:59;;;;;;;5.00;1.40;;;;;;;46.41;13.53;99577.91;5531703;32;33859;-67
2022/06/20 14:01:15;;;;;;;4.68;1.40;;;;;;;47.69;11.82;99583.72;5530725;32;34614;-67
2022/06/20 14:04:20;;;;;;;3.95;1.58;;;;;;;49.34;11.11;99577.59;5531566;32;34807;-66
2022/06/20 14:07:28;;;;;;;2.03;1.48;;;;;;;49.63;10.77;99565.47;5530624;32;34162;-67
2022/06/20 14:10:44;;;;;;;3.28;1.55;;;;;;;49.92;10.89;99554.81;5517075;32;32908;-68
2022/06/20 14:13:48;;;;;;;3.95;1.58;;;;;;;47.43;12.28;99566.63;5531104;32;34046;-67
2022/06/20 14:16:55;;;;;;;3.53;1.70;;;;;;;47.56;12.88;99558.28;5531212;32;34618;-67
2022/06/20 14:20:09;;;;;;;6.32;1.73;;;;;;;48.87;11.47;99551.28;5531406;32;33875;-67
2022/06/20 14:23:19;;;;;;;2.30;1.40;;;;;;;45.82;14.09;99547.69;5531256;32;34038;-66
2022/06/20 14:26:26;;;;;;;3.12;1.58;;;;;;;45.35;13.97;99543.19;5530431;32;34876;-67
2022/06/20 14:29:31;;;;;;;;;;;;;;;45.13;14.06;99548.28;5531510;32;34613;-67
2022/06/20 14:32:45;;;;;;;3.83;1.60;;;;;;;43.51;14.98;99543.06;5531289;32;34514;-66
2022/06/20 14:35:50;;;;;;;3.95;1.80;;;;;;;43.99;14.83;99545.09;5530798;32;34685;-66
2022/06/20 14:39:10;;;;;;;2.70;1.50;;;;;;;46.67;12.58;99542.56;5530150;32;34647;-68
2022/06/20 14:42:41;;;;;;;2.35;1.60;;;;;;;47.29;12.57;99530.44;5530641;32;35216;-67
2022/06/20 14:46:22;;;;;;;3.97;1.50;;;;;;;45.77;13.40;99516.50;5530408;32;34062;-67
2022/06/20 14:49:46;;;;;;;4.68;1.40;;;;;;;45.41;12.84;99533.12;5441144;32;34320;-68
2022/06/20 14:52:58;;;;;;;3.22;1.30;;;;;;;45.35;13.62;99524.38;5452658;32;35036;-68
2022/06/20 14:56:13;;;;;;;3.85;1.60;;;;;;;44.47;13.33;99522.69;5452343;32;34213;-66
2022/06/20 14:59:35;;;;;;;3.15;1.50;;;;;;;42.13;15.05;99509.25;5452666;32;34029;-68
2022/06/20 15:02:47;;;;;;;2.45;1.30;;;;;;;39.30;18.32;99508.66;5452741;32;33787;-68
2022/06/20 15:05:49;;;;;;;2.20;1.50;;;;;;;36.37;21.92;99502.47;5440339;32;33154;-69
2022/06/20 15:09:10;;;;;;;3.05;1.50;;;;;;;35.76;22.65;99497.47;5453045;32;33902;-68
2022/06/20 15:12:33;;;;;;;5.07;1.70;;;;;;;35.72;23.07;99491.88;5440197;32;33967;-68
2022/06/20 15:15:44;;;;;;;3.37;1.60;;;;;;;36.08;22.95;99493.53;5452037;32;34160;-67
2022/06/20 15:19:16;;;;;;;6.82;1.52;;;;;;;35.82;23.38;99503.53;5439813;32;34022;-69
2022/06/20 15:22:30;;;;;;;7.20;2.10;;;;;;;35.24;24.14;99505.97;5469448;32;34006;-67
2022/06/20 15:25:38;;;;;;;8.75;1.83;;;;;;;35.02;24.71;99498.22;5530501;32;34690;-68
2022/06/20 15:28:43;;;;;;;6.50;2.00;;;;;;;35.34;24.30;99491.66;5530018;32;32744;-69
2022/06/20 15:32:16;;;;;;;5.00;2.10;;;;;;;34.65;25.50;99500.28;5530902;32;34135;-67